createdAt,value
2023-01-25T00:01:04.342Z,0.25
2023-01-25T00:04:06.976Z,-0.01
2023-01-25T00:07:09.657Z,0.05
2023-01-25T00:10:12.681Z,0.12
2023-01-25T00:13:15.683Z,-0.01
2023-01-25T00:16:18.310Z,-0.12
2023-01-25T00:19:20.927Z,-0.05
2023-01-25T00:22:23.352Z,0.02
2023-01-25T00:25:25.871Z,-0.11
2023-01-25T00:28:28.630Z,-0.23
2023-01-25T00:31:34.512Z,-0.23
2023-01-25T00:34:48.285Z,-0.20
2023-01-25T00:37:53.229Z,-0.15
2023-01-25T00:40:57.500Z,-0.15
2023-01-25T00:44:00.047Z,-0.22
2023-01-25T00:47:03.739Z,-0.12
2023-01-25T00:50:08.368Z,-0.17
2023-01-25T00:53:11.197Z,-0.11
2023-01-25T00:56:14.038Z,-0.12
2023-01-25T00:59:16.694Z,-0.10
2023-01-25T01:02:19.691Z,-0.04
2023-01-25T01:05:22.216Z,-0.11
2023-01-25T01:08:25.096Z,-0.04
2023-01-25T01:11:28.770Z,-0.04
2023-01-25T01:14:32.975Z,-0.06
2023-01-25T01:17:35.466Z,-0.01
2023-01-25T01:20:39.191Z,0.03
2023-01-25T01:23:41.884Z,0.02
2023-01-25T01:26:44.577Z,-0.09
2023-01-25T01:29:47.386Z,-0.24
2023-01-25T01:32:51.703Z,-0.27
2023-01-25T01:35:54.382Z,-0.32
2023-01-25T01:38:59.120Z,-0.22
2023-01-25T01:42:01.972Z,-0.19
2023-01-25T01:45:42.878Z,-0.20
2023-01-25T01:48:51.326Z,-0.20
2023-01-25T01:52:01.947Z,-0.43
2023-01-25T01:55:18.775Z,-0.46
2023-01-25T01:58:22.979Z,-0.66
2023-01-25T02:01:27.753Z,-0.47
2023-01-25T02:04:31.026Z,-0.57
2023-01-25T02:07:37.161Z,-0.68
2023-01-25T02:10:43.050Z,-0.62
2023-01-25T02:13:47.240Z,-0.61
2023-01-25T02:16:51.630Z,-0.58
2023-01-25T02:20:09.281Z,-0.58
2023-01-25T02:23:55.754Z,-0.57
2023-01-25T02:26:58.405Z,-0.50
2023-01-25T02:30:01.262Z,-0.49
2023-01-25T02:33:04.206Z,-0.54
2023-01-25T02:36:06.751Z,-0.46
2023-01-25T02:39:17.335Z,-0.53
2023-01-25T02:42:21.276Z,-0.50
2023-01-25T02:45:29.570Z,-0.49
2023-01-25T02:48:32.002Z,-0.41
2023-01-25T02:51:40.076Z,-0.51
2023-01-25T02:54:42.541Z,-0.68
2023-01-25T02:57:45.276Z,-0.92
2023-01-25T03:00:54.656Z,-0.92
2023-01-25T03:03:57.261Z,-0.95
2023-01-25T03:06:59.830Z,-0.97
2023-01-25T03:10:04.018Z,-0.95
2023-01-25T03:13:07.841Z,-0.86
2023-01-25T03:16:12.989Z,-0.85
2023-01-25T03:19:17.714Z,-1.01
2023-01-25T03:22:20.681Z,-1.13
2023-01-25T03:25:25.386Z,-1.05
2023-01-25T03:28:35.420Z,-1.19
2023-01-25T03:31:38.603Z,-1.22
2023-01-25T03:34:41.114Z,-1.26
2023-01-25T03:37:44.007Z,-1.15
2023-01-25T03:40:47.689Z,-1.04
2023-01-25T03:43:50.408Z,-1.16
2023-01-25T03:46:53.777Z,-1.14
2023-01-25T03:49:56.821Z,-1.19
2023-01-25T03:53:07.212Z,-1.18
2023-01-25T03:56:19.895Z,-1.23
2023-01-25T03:59:33.428Z,-1.38
2023-01-25T04:02:35.927Z,-1.47
2023-01-25T04:05:39.170Z,-1.50
2023-01-25T04:08:41.691Z,-1.57
2023-01-25T04:11:44.988Z,-1.61
2023-01-25T04:14:48.844Z,-1.57
2023-01-25T04:17:57.129Z,-1.58
2023-01-25T04:21:01.451Z,-1.71
2023-01-25T04:24:04.392Z,-1.66
2023-01-25T04:27:11.319Z,-1.64
2023-01-25T04:30:22.270Z,-1.82
2023-01-25T04:33:26.646Z,-1.67
2023-01-25T04:36:29.107Z,-1.74
2023-01-25T04:39:31.692Z,-1.77
2023-01-25T04:42:34.547Z,-1.81
2023-01-25T04:45:37.165Z,-1.83
2023-01-25T04:48:44.908Z,-1.76
2023-01-25T04:51:48.324Z,-1.74
2023-01-25T04:54:50.833Z,-1.63
2023-01-25T04:57:53.374Z,-1.68
2023-01-25T05:01:00.969Z,-1.84
2023-01-25T05:04:03.708Z,-1.76
2023-01-25T05:07:12.575Z,-1.78
2023-01-25T05:10:15.754Z,-1.90
2023-01-25T05:13:35.855Z,-1.89
2023-01-25T05:16:47.957Z,-2.00
2023-01-25T05:19:51.107Z,-1.91
2023-01-25T05:22:57.932Z,-1.77
2023-01-25T05:26:18.910Z,-1.86
2023-01-25T05:29:21.956Z,-1.77
2023-01-25T05:32:35.929Z,-1.79
2023-01-25T05:35:39.088Z,-1.75
2023-01-25T05:38:41.798Z,-1.83
2023-01-25T05:41:45.769Z,-1.86
2023-01-25T05:44:48.535Z,-1.89
2023-01-25T05:47:54.286Z,-1.85
2023-01-25T05:50:58.363Z,-1.97
2023-01-25T05:54:00.907Z,-1.90
2023-01-25T05:57:03.875Z,-1.97
2023-01-25T06:00:07.394Z,-2.01
2023-01-25T06:03:15.883Z,-2.11
2023-01-25T06:06:19.273Z,-2.10
2023-01-25T06:09:23.523Z,-2.12
2023-01-25T06:12:29.399Z,-2.17
2023-01-25T06:15:33.254Z,-2.22
2023-01-25T06:18:56.032Z,-2.14
2023-01-25T06:22:21.701Z,-2.17
2023-01-25T06:25:24.330Z,-2.18
2023-01-25T06:28:30.802Z,-2.22
2023-01-25T06:31:34.818Z,-2.17
2023-01-25T06:34:37.663Z,-1.98
2023-01-25T06:37:40.454Z,-1.85
2023-01-25T06:40:43.354Z,-1.88
2023-01-25T06:43:46.910Z,-1.85
2023-01-25T06:46:49.547Z,-1.78
2023-01-25T06:49:52.080Z,-1.88
2023-01-25T06:52:55.666Z,-2.03
2023-01-25T06:56:11.797Z,-1.99
2023-01-25T06:59:16.077Z,-1.95
2023-01-25T07:02:18.566Z,-1.89
2023-01-25T07:05:21.075Z,-1.75
2023-01-25T07:08:23.784Z,-1.87
2023-01-25T07:11:26.727Z,-1.78
2023-01-25T07:14:31.024Z,-1.65
2023-01-25T07:17:33.564Z,-1.64
2023-01-25T07:20:37.524Z,-1.64
2023-01-25T07:23:41.623Z,-1.72
2023-01-25T07:26:44.538Z,-1.68
2023-01-25T07:29:47.310Z,-1.55
2023-01-25T07:32:49.774Z,-1.65
2023-01-25T07:35:52.241Z,-1.54
2023-01-25T07:38:56.170Z,-1.74
2023-01-25T07:41:58.889Z,-1.54
2023-01-25T07:45:08.580Z,-1.49
2023-01-25T07:48:11.378Z,-1.38
2023-01-25T07:51:22.885Z,-1.21
2023-01-25T07:54:25.607Z,-1.19
2023-01-25T07:57:31.182Z,-1.20
2023-01-25T08:00:33.842Z,-1.07
2023-01-25T08:03:36.594Z,-1.02
2023-01-25T08:06:39.481Z,-0.82
2023-01-25T08:09:42.599Z,-0.81
2023-01-25T08:12:46.561Z,-0.74
2023-01-25T08:15:55.868Z,-0.54
2023-01-25T08:19:00.303Z,-0.33
2023-01-25T08:22:02.818Z,-0.23
2023-01-25T08:25:05.732Z,-0.20
2023-01-25T08:28:08.352Z,-0.10
2023-01-25T08:31:19.193Z,-0.03
2023-01-25T08:34:21.709Z,0.19
2023-01-25T08:37:24.313Z,0.47
2023-01-25T08:40:27.698Z,0.58
2023-01-25T08:43:30.221Z,0.75
2023-01-25T08:46:34.000Z,1.03
2023-01-25T08:49:36.560Z,1.18
2023-01-25T08:52:39.423Z,1.51
2023-01-25T08:55:43.240Z,1.63
2023-01-25T08:58:48.449Z,1.65
2023-01-25T09:01:50.965Z,2.11
2023-01-25T09:04:53.684Z,2.27
2023-01-25T09:07:56.174Z,2.56
2023-01-25T09:11:03.590Z,2.58
2023-01-25T09:14:06.615Z,2.95
2023-01-25T09:17:09.833Z,3.02
2023-01-25T09:20:12.646Z,3.32
2023-01-25T09:23:15.565Z,3.18
2023-01-25T09:26:18.946Z,3.35
2023-01-25T09:29:21.511Z,3.81
2023-01-25T09:32:24.440Z,3.47
2023-01-25T09:35:29.727Z,3.60
2023-01-25T09:38:32.691Z,3.63
2023-01-25T09:41:40.994Z,3.58
2023-01-25T09:45:04.643Z,3.66
2023-01-25T09:48:22.294Z,3.64
2023-01-25T09:51:51.913Z,3.57
2023-01-25T09:54:54.540Z,3.20
2023-01-25T09:58:00.866Z,3.52
2023-01-25T10:01:41.047Z,3.63
2023-01-25T10:04:46.049Z,3.47
2023-01-25T10:08:17.875Z,3.42
2023-01-25T10:11:25.874Z,3.47
2023-01-25T10:14:33.409Z,3.45
2023-01-25T10:17:40.046Z,3.49
2023-01-25T10:20:53.195Z,3.59
2023-01-25T10:24:08.353Z,3.72
2023-01-25T10:27:23.672Z,3.70
2023-01-25T10:30:29.733Z,3.64
2023-01-25T10:33:38.717Z,3.81
2023-01-25T10:36:42.519Z,3.73
2023-01-25T10:40:14.602Z,3.76
2023-01-25T10:43:20.341Z,3.77
2023-01-25T10:46:26.363Z,3.76
2023-01-25T10:49:44.248Z,3.91
2023-01-25T10:52:58.335Z,3.93
2023-01-25T10:56:24.378Z,4.09
2023-01-25T10:59:28.988Z,4.08
2023-01-25T11:03:01.052Z,4.45
2023-01-25T11:06:04.425Z,4.57
2023-01-25T11:09:21.898Z,4.65
2023-01-25T11:12:24.420Z,4.68
2023-01-25T11:15:27.041Z,4.80
2023-01-25T11:18:33.848Z,4.75
2023-01-25T11:21:36.345Z,4.75
2023-01-25T11:24:39.401Z,4.89
2023-01-25T11:27:42.001Z,5.08
2023-01-25T11:30:45.763Z,5.15
2023-01-25T11:33:48.450Z,5.20
2023-01-25T11:37:18.396Z,5.39
2023-01-25T11:41:02.372Z,5.16
2023-01-25T11:44:33.822Z,5.55
2023-01-25T11:48:03.986Z,5.47
2023-01-25T11:51:14.099Z,5.12
2023-01-25T11:54:32.874Z,4.87
2023-01-25T11:57:54.028Z,5.06
2023-01-25T12:01:14.883Z,4.78
2023-01-25T12:04:50.871Z,5.11
2023-01-25T12:08:27.027Z,5.03
2023-01-25T12:11:32.225Z,4.98
2023-01-25T12:14:56.222Z,5.07
2023-01-25T12:18:11.187Z,5.17
2023-01-25T12:21:40.190Z,5.36
2023-01-25T12:25:03.372Z,5.29
2023-01-25T12:28:21.281Z,5.12
2023-01-25T12:31:29.499Z,5.07
2023-01-25T12:34:40.956Z,5.15
2023-01-25T12:37:46.277Z,5.51
2023-01-25T12:41:00.177Z,5.53
2023-01-25T12:44:23.009Z,5.27
2023-01-25T12:48:03.275Z,5.34
2023-01-25T12:51:05.789Z,5.43
2023-01-25T12:54:23.403Z,5.42
2023-01-25T12:57:47.547Z,5.40
2023-01-25T13:01:12.002Z,5.59
2023-01-25T13:04:51.354Z,5.54
2023-01-25T13:08:31.824Z,5.47
2023-01-25T13:11:41.138Z,5.38
2023-01-25T13:14:44.143Z,5.42
2023-01-25T13:17:46.687Z,5.45
2023-01-25T13:20:53.875Z,5.58
2023-01-25T13:24:11.588Z,5.62
2023-01-25T13:27:36.567Z,5.70
2023-01-25T13:30:52.139Z,5.63
2023-01-25T13:33:54.598Z,5.67
2023-01-25T13:36:57.425Z,5.50
2023-01-25T13:40:32.757Z,5.25
2023-01-25T13:43:35.343Z,5.08
2023-01-25T13:46:38.091Z,4.97
2023-01-25T13:49:42.128Z,5.04
2023-01-25T13:53:02.402Z,5.07
2023-01-25T13:56:05.434Z,5.16
2023-01-25T13:59:26.936Z,5.17
2023-01-25T14:02:35.096Z,5.15
2023-01-25T14:05:37.556Z,5.18
2023-01-25T14:08:40.723Z,4.96
2023-01-25T14:11:55.895Z,4.92
2023-01-25T14:15:10.055Z,4.82
2023-01-25T14:18:19.434Z,4.87
2023-01-25T14:21:22.787Z,4.76
2023-01-25T14:24:25.334Z,4.75
2023-01-25T14:27:27.873Z,4.57
2023-01-25T14:30:34.777Z,4.53
2023-01-25T14:33:40.376Z,4.62
2023-01-25T14:36:42.863Z,4.54
2023-01-25T14:39:46.592Z,4.49
2023-01-25T14:42:51.178Z,4.49
2023-01-25T14:45:54.057Z,4.48
2023-01-25T14:49:11.769Z,4.44
2023-01-25T14:52:19.500Z,4.33
2023-01-25T14:55:22.232Z,4.33
2023-01-25T14:58:29.079Z,4.32
2023-01-25T15:01:38.120Z,4.37
2023-01-25T15:04:55.785Z,4.16
2023-01-25T15:08:15.594Z,4.26
2023-01-25T15:11:49.016Z,4.17
2023-01-25T15:14:56.480Z,4.23
2023-01-25T15:17:59.980Z,4.16
2023-01-25T15:21:03.603Z,4.19
2023-01-25T15:24:12.225Z,4.26
2023-01-25T15:27:14.806Z,4.24
2023-01-25T15:30:19.250Z,4.22
2023-01-25T15:33:28.742Z,4.25
2023-01-25T15:36:32.880Z,4.25
2023-01-25T15:39:35.889Z,4.23
2023-01-25T15:42:38.802Z,4.18
2023-01-25T15:45:46.391Z,4.04
2023-01-25T15:48:50.149Z,3.90
2023-01-25T15:51:54.083Z,4.05
2023-01-25T15:55:01.869Z,4.06
2023-01-25T15:58:05.280Z,4.04
2023-01-25T16:01:08.140Z,3.70
2023-01-25T16:04:13.703Z,3.67
2023-01-25T16:07:24.783Z,3.52
2023-01-25T16:10:27.885Z,3.68
2023-01-25T16:13:30.309Z,3.76
2023-01-25T16:16:37.354Z,3.77
2023-01-25T16:19:39.796Z,3.75
2023-01-25T16:22:42.490Z,3.72
2023-01-25T16:25:48.429Z,3.49
2023-01-25T16:28:51.052Z,3.52
2023-01-25T16:31:55.755Z,3.79
2023-01-25T16:34:58.796Z,3.73
2023-01-25T16:38:01.581Z,3.81
2023-01-25T16:41:05.038Z,3.86
2023-01-25T16:44:07.726Z,3.91
2023-01-25T16:47:14.702Z,3.97
2023-01-25T16:50:19.003Z,4.00
2023-01-25T16:53:21.567Z,3.98
2023-01-25T16:56:27.535Z,4.03
2023-01-25T16:59:30.760Z,3.98
2023-01-25T17:02:33.565Z,3.99
2023-01-25T17:05:38.361Z,3.97
2023-01-25T17:08:41.105Z,3.98
2023-01-25T17:11:44.070Z,3.89
2023-01-25T17:14:46.666Z,3.89
2023-01-25T17:17:49.232Z,3.76
2023-01-25T17:21:01.918Z,3.68
2023-01-25T17:24:04.843Z,3.73
2023-01-25T17:27:07.604Z,3.71
2023-01-25T17:30:12.298Z,3.70
2023-01-25T17:33:16.424Z,3.74
2023-01-25T17:36:19.985Z,3.76
2023-01-25T17:39:23.442Z,3.70
2023-01-25T17:42:26.377Z,3.80
2023-01-25T17:45:29.410Z,3.87
2023-01-25T17:48:32.266Z,3.92
2023-01-25T17:51:36.656Z,3.74
2023-01-25T17:54:40.195Z,3.82
2023-01-25T17:57:43.540Z,3.73
2023-01-25T18:00:47.309Z,3.66
2023-01-25T18:03:52.404Z,3.65
2023-01-25T18:06:55.232Z,3.68
2023-01-25T18:09:57.862Z,3.61
2023-01-25T18:13:04.945Z,3.68
2023-01-25T18:16:10.052Z,3.67
2023-01-25T18:19:13.431Z,3.68
2023-01-25T18:22:16.276Z,3.63
2023-01-25T18:25:36.212Z,3.43
2023-01-25T18:28:38.900Z,3.56
2023-01-25T18:31:42.377Z,3.56
2023-01-25T18:34:46.888Z,3.65
2023-01-25T18:37:49.751Z,3.66
2023-01-25T18:40:53.450Z,3.79
2023-01-25T18:43:56.869Z,3.73
2023-01-25T18:46:59.659Z,3.60
2023-01-25T18:50:02.792Z,3.67
2023-01-25T18:53:05.815Z,3.69
2023-01-25T18:56:17.564Z,3.68
2023-01-25T18:59:20.284Z,3.66
2023-01-25T19:02:24.170Z,3.73
2023-01-25T19:05:27.879Z,3.65
2023-01-25T19:08:36.456Z,3.48
2023-01-25T19:11:39.514Z,3.43
2023-01-25T19:14:42.419Z,3.48
2023-01-25T19:17:45.233Z,3.33
2023-01-25T19:20:50.351Z,3.36
2023-01-25T19:23:54.789Z,3.47
2023-01-25T19:26:57.729Z,3.51
2023-01-25T19:30:00.791Z,3.57
2023-01-25T19:33:03.512Z,3.57
2023-01-25T19:36:09.173Z,3.56
2023-01-25T19:39:12.376Z,3.55
2023-01-25T19:42:18.399Z,3.48
2023-01-25T19:45:21.439Z,3.56
2023-01-25T19:48:23.978Z,3.40
2023-01-25T19:51:32.105Z,3.48
2023-01-25T19:54:35.316Z,3.51
2023-01-25T19:57:38.505Z,3.50
2023-01-25T20:00:43.744Z,3.44
2023-01-25T20:03:47.418Z,3.52
2023-01-25T20:06:50.906Z,3.49
2023-01-25T20:09:53.733Z,3.39
2023-01-25T20:12:57.479Z,3.48
2023-01-25T20:16:00.367Z,3.46
2023-01-25T20:19:03.762Z,3.39
2023-01-25T20:22:06.956Z,3.53
2023-01-25T20:25:10.125Z,3.45
2023-01-25T20:28:13.218Z,3.51
2023-01-25T20:31:35.001Z,3.55
2023-01-25T20:34:38.088Z,3.55
2023-01-25T20:37:40.907Z,3.55
2023-01-25T20:40:43.702Z,3.36
2023-01-25T20:43:48.358Z,3.26
2023-01-25T20:46:51.758Z,3.20
2023-01-25T20:49:55.654Z,3.26
2023-01-25T20:52:59.036Z,3.25
2023-01-25T20:56:01.620Z,3.23
2023-01-25T20:59:04.516Z,3.28
2023-01-25T21:02:10.655Z,3.19
2023-01-25T21:05:13.616Z,3.26
2023-01-25T21:08:17.234Z,3.29
2023-01-25T21:11:20.365Z,3.09
2023-01-25T21:14:23.451Z,3.22
2023-01-25T21:17:26.324Z,3.20
2023-01-25T21:20:31.784Z,3.19
2023-01-25T21:23:35.593Z,3.25
2023-01-25T21:26:38.597Z,3.22
2023-01-25T21:29:41.346Z,3.16
2023-01-25T21:32:44.219Z,3.07
2023-01-25T21:35:47.020Z,3.13
2023-01-25T21:38:51.354Z,3.18
2023-01-25T21:41:53.831Z,3.24
2023-01-25T21:45:15.394Z,3.14
2023-01-25T21:48:37.865Z,3.10
2023-01-25T21:51:50.777Z,3.20
2023-01-25T21:54:53.265Z,3.10
2023-01-25T21:57:55.702Z,3.03
2023-01-25T22:01:02.152Z,3.10
2023-01-25T22:04:06.069Z,3.16
2023-01-25T22:07:09.351Z,3.16
2023-01-25T22:10:12.125Z,3.11
2023-01-25T22:13:14.830Z,3.13
2023-01-25T22:16:17.304Z,3.14
2023-01-25T22:19:19.857Z,3.07
2023-01-25T22:22:22.630Z,3.08
2023-01-25T22:25:25.239Z,3.06
2023-01-25T22:28:28.236Z,2.89
2023-01-25T22:31:31.850Z,2.85
2023-01-25T22:34:34.429Z,3.01
2023-01-25T22:37:38.130Z,2.85
2023-01-25T22:40:41.199Z,2.98
2023-01-25T22:43:44.368Z,2.99
2023-01-25T22:46:47.424Z,2.95
2023-01-25T22:49:50.178Z,2.86
2023-01-25T22:52:52.671Z,2.93
2023-01-25T22:56:06.289Z,2.96
2023-01-25T22:59:11.585Z,2.89
2023-01-25T23:02:14.060Z,2.92
2023-01-25T23:05:16.647Z,2.90
2023-01-25T23:08:19.210Z,3.01
2023-01-25T23:11:24.260Z,2.87
2023-01-25T23:14:46.988Z,2.94
2023-01-25T23:18:08.039Z,2.88
2023-01-25T23:21:11.874Z,2.86
2023-01-25T23:24:14.594Z,2.87
2023-01-25T23:27:17.051Z,2.95
2023-01-25T23:30:20.063Z,2.99
2023-01-25T23:33:22.519Z,3.00
2023-01-25T23:36:28.393Z,2.97
2023-01-25T23:39:30.899Z,2.79
2023-01-25T23:42:33.388Z,2.74
2023-01-25T23:45:35.915Z,2.68
2023-01-25T23:48:38.550Z,2.68
2023-01-25T23:51:41.239Z,2.80
2023-01-25T23:54:43.695Z,2.74
2023-01-25T23:57:46.137Z,2.51
